Time;durP1;ratioP1;P1;durP2;ratioP2;P2;SDS_P1;SDS_P2;PMS_P1;PMS_P2;Temp;Humidity;BMP_temperature;BMP_pressure;BME280_temperature;BME280_humidity;BME280_pressure;Samples;Min_cycle;Max_cycle;Signal;HPM_P1;HPM_P2
2021/12/07 00:00:17;;;;;;;21.43;9.03;;;2.60;99.90;;;;;;5035374;28;20476;-58
2021/12/07 00:02:44;;;;;;;19.10;6.87;;;2.50;99.90;;;;;;5035465;28;20520;-56
2021/12/07 00:05:13;;;;;;;14.47;7.93;;;2.60;99.90;;;;;;5035492;28;20445;-54
2021/12/07 00:07:42;;;;;;;12.50;7.40;;;2.50;99.90;;;;;;5035194;28;20453;-54
2021/12/07 00:10:10;;;;;;;23.23;8.83;;;2.50;99.90;;;;;;5036871;28;20519;-56
2021/12/07 00:12:41;;;;;;;19.87;11.20;;;2.40;99.90;;;;;;5039742;28;20457;-53
2021/12/07 00:15:10;;;;;;;16.57;7.70;;;2.40;99.90;;;;;;5039026;28;20465;-56
2021/12/07 00:17:38;;;;;;;17.77;7.67;;;2.40;99.90;;;;;;5038626;28;20456;-55
2021/12/07 00:20:09;;;;;;;16.43;6.00;;;2.40;99.90;;;;;;5038738;28;20476;-58
2021/12/07 00:22:38;;;;;;;11.40;7.43;;;2.50;99.90;;;;;;5039284;28;20452;-56
2021/12/07 00:25:06;;;;;;;19.50;9.33;;;2.40;99.90;;;;;;5038813;28;20469;-57
2021/12/07 00:27:34;;;;;;;16.03;7.80;;;2.40;99.90;;;;;;5039069;28;20465;-52
2021/12/07 00:30:00;;;;;;;16.93;8.50;;;2.40;99.90;;;;;;5038643;28;20446;-56
2021/12/07 00:32:31;;;;;;;15.23;7.90;;;2.40;99.90;;;;;;5038487;28;20437;-54
2021/12/07 00:37:47;;;;;;;10.47;6.27;;;2.30;99.90;;;;;;5035286;28;20444;-49
2021/12/07 00:40:17;;;;;;;12.67;7.27;;;2.30;99.90;;;;;;5038549;28;20519;-57
2021/12/07 00:42:43;;;;;;;13.03;5.63;;;2.30;99.90;;;;;;5038869;28;20456;-57
2021/12/07 00:45:12;;;;;;;11.60;7.00;;;2.30;99.90;;;;;;5038788;28;20465;-54
2021/12/07 00:47:39;;;;;;;13.00;7.50;;;2.30;99.90;;;;;;5038915;28;20469;-53
2021/12/07 00:50:09;;;;;;;16.27;7.20;;;2.20;99.90;;;;;;5038442;28;20456;-55
2021/12/07 00:52:37;;;;;;;17.37;7.53;;;2.20;99.90;;;;;;5038987;28;20418;-55
2021/12/07 00:55:10;;;;;;;14.73;8.30;;;2.10;99.90;;;;;;5038131;28;20483;-57
2021/12/07 00:57:38;;;;;;;17.83;7.60;;;2.10;99.90;;;;;;5038046;28;20492;-55
2021/12/07 01:00:06;;;;;;;12.37;6.60;;;2.10;99.90;;;;;;5038023;28;20456;-56
2021/12/07 01:02:33;;;;;;;12.60;6.20;;;2.10;99.90;;;;;;5038758;28;20438;-57
2021/12/07 01:05:08;;;;;;;10.03;7.00;;;2.20;99.90;;;;;;5038156;28;20472;-55
2021/12/07 01:07:54;;;;;;;16.23;7.67;;;2.20;99.90;;;;;;5038288;28;20448;-55
2021/12/07 01:26:51;;;;;;;14.23;6.87;;;2.10;99.90;;;;;;5038620;28;20471;-51
2021/12/07 01:29:21;;;;;;;10.40;6.37;;;2.10;99.90;;;;;;5038643;28;20444;-57
2021/12/07 01:31:54;;;;;;;13.10;6.90;;;2.10;99.90;;;;;;5038377;28;20433;-49
2021/12/07 01:34:43;;;;;;;13.23;6.80;;;2.10;99.90;;;;;;5038552;28;20433;-55
2021/12/07 01:37:26;;;;;;;13.23;6.80;;;2.10;99.90;;;;;;5038652;28;20528;-54
2021/12/07 01:45:50;;;;;;;10.93;6.03;;;1.90;99.90;;;;;;5038022;28;20481;-53
2021/12/07 01:51:13;;;;;;;12.77;6.27;;;1.80;99.90;;;;;;5037898;28;20420;-52
2021/12/07 02:01:57;;;;;;;14.07;6.93;;;1.80;99.90;;;;;;5037111;28;20481;-54
2021/12/07 02:04:24;;;;;;;14.77;6.20;;;1.70;99.90;;;;;;5037278;28;20452;-55
2021/12/07 02:06:51;;;;;;;11.10;6.23;;;1.70;99.90;;;;;;5037673;28;20480;-56
2021/12/07 02:09:19;;;;;;;11.83;5.17;;;1.70;99.90;;;;;;5037675;28;20454;-56
2021/12/07 02:11:50;;;;;;;9.63;5.70;;;1.60;99.90;;;;;;5038086;28;20461;-49
2021/12/07 02:14:17;;;;;;;11.20;5.17;;;1.60;99.90;;;;;;5037694;28;20492;-52
2021/12/07 02:16:46;;;;;;;12.83;6.70;;;1.60;99.90;;;;;;5037456;28;20547;-57
2021/12/07 02:19:12;;;;;;;12.80;6.23;;;1.60;99.90;;;;;;5037622;28;20483;-57
2021/12/07 02:21:41;;;;;;;12.30;8.00;;;1.60;99.90;;;;;;5037370;28;20496;-57
2021/12/07 02:24:08;;;;;;;9.63;5.30;;;1.50;99.90;;;;;;5037289;28;20477;-53
2021/12/07 02:26:35;;;;;;;14.93;7.33;;;1.50;99.90;;;;;;5037408;28;20467;-57
2021/12/07 02:29:02;;;;;;;10.87;5.00;;;1.50;99.90;;;;;;5036867;28;20445;-56
2021/12/07 02:31:29;;;;;;;10.87;5.87;;;1.50;99.90;;;;;;5037194;28;20484;-57
2021/12/07 02:33:57;;;;;;;8.10;4.67;;;1.50;99.90;;;;;;5036343;28;20445;-56
2021/12/07 02:36:24;;;;;;;14.60;6.27;;;1.50;99.90;;;;;;5037319;28;20492;-56
2021/12/07 02:38:53;;;;;;;12.70;4.67;;;1.50;99.90;;;;;;5037427;28;20446;-54
2021/12/07 02:41:19;;;;;;;9.43;5.37;;;1.50;99.90;;;;;;5036722;28;20495;-56
2021/12/07 02:43:47;;;;;;;21.03;6.57;;;1.50;99.90;;;;;;5036957;28;20483;-57
2021/12/07 02:46:16;;;;;;;7.30;5.33;;;1.50;99.90;;;;;;5037116;28;20535;-54
2021/12/07 02:48:43;;;;;;;13.57;5.70;;;1.40;99.90;;;;;;5037133;28;20439;-51
2021/12/07 02:51:12;;;;;;;11.17;5.80;;;1.40;99.90;;;;;;5036870;28;20467;-55
2021/12/07 02:53:39;;;;;;;9.53;6.10;;;1.40;99.90;;;;;;5036915;28;20464;-52
2021/12/07 02:56:09;;;;;;;11.77;4.93;;;1.40;99.90;;;;;;5036887;28;20545;-52
2021/12/07 02:58:36;;;;;;;14.17;6.17;;;1.40;99.90;;;;;;5036421;28;20438;-51
2021/12/07 03:01:10;;;;;;;10.77;5.60;;;1.30;99.90;;;;;;5036771;28;20527;-53
2021/12/07 03:03:48;;;;;;;8.93;5.27;;;1.30;99.90;;;;;;5037000;28;20452;-62
2021/12/07 03:06:21;;;;;;;11.00;6.40;;;1.30;99.90;;;;;;5036601;28;20500;-56
2021/12/07 03:09:17;;;;;;;13.30;4.73;;;1.30;99.90;;;;;;5037005;28;20445;-55
2021/12/07 03:28:25;;;;;;;13.77;6.90;;;1.20;99.90;;;;;;5036453;28;20392;-54
2021/12/07 03:30:52;;;;;;;10.07;5.30;;;1.20;99.90;;;;;;5036293;28;20460;-55
2021/12/07 03:33:19;;;;;;;17.90;8.57;;;1.20;99.90;;;;;;5036599;28;20432;-56
2021/12/07 03:35:49;;;;;;;13.37;7.23;;;1.20;99.90;;;;;;5036796;28;20437;-53
2021/12/07 03:38:16;;;;;;;14.80;6.87;;;1.20;99.90;;;;;;5036918;28;20419;-55
2021/12/07 03:40:43;;;;;;;10.87;6.87;;;1.20;99.90;;;;;;5036645;28;20484;-55
2021/12/07 03:43:10;;;;;;;11.53;6.27;;;1.20;99.90;;;;;;5036693;28;20440;-58
2021/12/07 03:45:38;;;;;;;13.83;7.17;;;1.30;99.90;;;;;;5040453;28;20449;-51
2021/12/07 03:48:06;;;;;;;11.33;6.37;;;1.40;99.90;;;;;;5040126;28;20446;-53
2021/12/07 03:50:34;;;;;;;17.93;8.07;;;1.40;99.90;;;;;;5040275;28;20457;-58
2021/12/07 03:53:01;;;;;;;9.80;6.60;;;1.40;99.90;;;;;;5040308;28;20454;-56
2021/12/07 03:55:28;;;;;;;14.60;7.40;;;1.50;99.90;;;;;;5040320;28;20444;-58
2021/12/07 03:57:57;;;;;;;14.50;7.80;;;1.50;99.90;;;;;;5040536;28;20465;-57
2021/12/07 04:00:28;;;;;;;11.57;6.33;;;1.50;99.90;;;;;;5039633;28;20460;-51
2021/12/07 04:02:58;;;;;;;17.63;8.33;;;1.60;99.90;;;;;;5039553;28;20961;-56
2021/12/07 04:05:26;;;;;;;11.97;8.80;;;1.60;99.90;;;;;;5040081;28;20444;-52
2021/12/07 04:07:53;;;;;;;20.10;7.40;;;1.60;99.90;;;;;;5040109;28;20433;-54
2021/12/07 04:10:22;;;;;;;15.10;8.07;;;1.60;99.90;;;;;;5039892;28;20479;-56
2021/12/07 04:12:49;;;;;;;22.17;9.03;;;1.60;99.90;;;;;;5039914;28;20731;-55
2021/12/07 04:15:18;;;;;;;16.43;7.53;;;1.70;99.90;;;;;;5040092;28;20461;-60
2021/12/07 04:17:45;;;;;;;16.87;7.90;;;1.70;99.90;;;;;;5039688;28;20480;-56
2021/12/07 04:20:19;;;;;;;20.27;7.10;;;1.70;99.90;;;;;;5039795;28;20460;-56
2021/12/07 04:22:46;;;;;;;12.60;6.93;;;1.70;99.90;;;;;;5039555;28;20493;-55
2021/12/07 04:25:14;;;;;;;14.47;8.70;;;1.70;99.90;;;;;;5039559;28;20461;-55
2021/12/07 04:27:41;;;;;;;20.97;8.80;;;1.70;99.90;;;;;;5039264;28;20448;-57
2021/12/07 04:30:12;;;;;;;7.70;5.10;;;1.70;99.90;;;;;;5039661;28;20521;-56
2021/12/07 04:32:41;;;;;;;13.03;8.57;;;1.70;99.90;;;;;;5039381;28;20526;-49
2021/12/07 04:35:10;;;;;;;11.17;7.17;;;1.70;99.90;;;;;;5039078;28;20445;-52
2021/12/07 04:37:39;;;;;;;16.40;10.50;;;1.70;99.90;;;;;;5039601;28;20518;-55
2021/12/07 04:40:08;;;;;;;18.87;7.63;;;1.70;99.90;;;;;;5039259;28;20450;-55
2021/12/07 04:42:35;;;;;;;12.60;7.00;;;1.70;99.90;;;;;;5039155;28;20492;-55
2021/12/07 04:45:05;;;;;;;15.33;7.07;;;1.70;99.90;;;;;;5038951;28;20456;-51
2021/12/07 04:47:41;;;;;;;10.03;6.00;;;1.70;99.90;;;;;;5039316;28;20522;-52
2021/12/07 04:50:35;;;;;;;13.30;8.30;;;1.70;99.90;;;;;;5039311;28;20420;-52
2021/12/07 04:58:34;;;;;;;21.47;8.60;;;1.60;99.90;;;;;;5038810;28;20448;-60
2021/12/07 05:01:08;;;;;;;10.17;5.90;;;1.70;99.90;;;;;;5038391;28;20442;-57
2021/12/07 05:03:35;;;;;;;16.03;8.43;;;1.60;99.90;;;;;;5039089;28;20505;-57
2021/12/07 05:06:01;;;;;;;12.80;6.60;;;1.60;99.90;;;;;;5038908;28;20448;-54
2021/12/07 05:08:37;;;;;;;19.70;10.97;;;1.70;99.90;;;;;;5038618;28;20455;-53
2021/12/07 05:11:31;;;;;;;12.73;6.03;;;1.70;99.90;;;;;;5038699;28;20432;-58
2021/12/07 05:14:12;;;;;;;21.40;9.60;;;1.70;99.90;;;;;;5038841;28;20508;-52
2021/12/07 05:17:01;;;;;;;18.17;8.77;;;1.70;99.90;;;;;;5038804;28;20497;-52
2021/12/07 05:38:35;;;;;;;12.80;7.17;;;1.60;99.90;;;;;;5034554;28;20420;-46
2021/12/07 05:41:03;;;;;;;15.00;7.60;;;1.70;99.90;;;;;;5033556;28;20459;-48
2021/12/07 05:43:31;;;;;;;15.23;8.10;;;1.60;99.90;;;;;;5033634;28;20461;-46
2021/12/07 05:45:58;;;;;;;17.43;6.90;;;1.60;99.90;;;;;;5034189;28;20448;-45
2021/12/07 05:48:24;;;;;;;18.50;8.10;;;1.60;99.90;;;;;;5033973;28;20442;-49
2021/12/07 05:50:51;;;;;;;9.83;7.40;;;1.50;99.90;;;;;;5034018;28;20446;-46
2021/12/07 05:53:18;;;;;;;26.77;10.13;;;1.50;99.90;;;;;;5034652;28;20469;-47
2021/12/07 05:55:45;;;;;;;14.83;8.50;;;1.60;99.90;;;;;;5034553;28;20449;-47
2021/12/07 05:58:14;;;;;;;13.60;7.73;;;1.60;99.90;;;;;;5034481;28;20476;-50
2021/12/07 06:00:45;;;;;;;18.73;7.20;;;1.50;99.90;;;;;;5033811;28;20476;-49
2021/12/07 06:03:13;;;;;;;20.90;7.50;;;1.50;99.90;;;;;;5033714;28;20496;-48
2021/12/07 06:05:42;;;;;;;17.00;9.17;;;1.50;99.90;;;;;;5033946;28;20465;-45
2021/12/07 06:08:10;;;;;;;11.57;8.30;;;1.40;99.90;;;;;;5034001;28;20850;-45
2021/12/07 06:10:37;;;;;;;13.03;7.50;;;1.40;99.90;;;;;;5033933;28;20455;-45
2021/12/07 06:13:04;;;;;;;21.40;9.00;;;1.40;99.90;;;;;;5033343;28;20465;-44
2021/12/07 06:15:34;;;;;;;30.77;12.10;;;1.40;99.90;;;;;;5033569;28;20501;-49
2021/12/07 06:18:03;;;;;;;13.97;8.27;;;1.40;99.90;;;;;;5033572;28;20467;-46
2021/12/07 06:20:30;;;;;;;10.73;7.03;;;1.30;99.90;;;;;;5033236;28;20899;-45
2021/12/07 06:22:57;;;;;;;14.20;7.77;;;1.40;99.90;;;;;;5034095;28;20515;-49
2021/12/07 06:25:30;;;;;;;15.50;9.83;;;1.40;99.90;;;;;;5035643;28;20453;-49
2021/12/07 06:27:57;;;;;;;18.27;8.80;;;1.40;99.90;;;;;;5034475;28;20461;-46
2021/12/07 06:30:23;;;;;;;15.90;7.80;;;1.30;99.90;;;;;;5032895;28;20475;-46
2021/12/07 06:32:51;;;;;;;17.20;7.20;;;1.30;99.90;;;;;;5033477;28;20465;-49
2021/12/07 06:35:18;;;;;;;19.20;8.60;;;1.30;99.90;;;;;;5033958;28;20457;-47
2021/12/07 06:37:45;;;;;;;22.53;9.70;;;1.30;99.90;;;;;;5034164;28;20488;-46
2021/12/07 06:40:12;;;;;;;14.67;7.70;;;1.30;99.90;;;;;;5033810;28;20457;-49
2021/12/07 06:42:39;;;;;;;18.07;8.30;;;1.20;99.90;;;;;;5033428;28;20488;-50
2021/12/07 06:45:07;;;;;;;17.13;9.60;;;1.20;99.90;;;;;;5034530;28;20434;-50
2021/12/07 06:47:34;;;;;;;24.80;12.20;;;1.20;99.90;;;;;;5033515;28;20472;-48
2021/12/07 06:50:04;;;;;;;24.37;9.53;;;1.20;99.90;;;;;;5033944;28;20452;-47
2021/12/07 06:52:35;;;;;;;11.20;6.43;;;1.20;99.90;;;;;;5035159;28;20495;-47
2021/12/07 06:55:02;;;;;;;18.80;10.13;;;1.20;99.90;;;;;;5034771;28;20429;-47
2021/12/07 06:57:29;;;;;;;22.07;11.30;;;1.20;99.90;;;;;;5034372;28;20465;-47
2021/12/07 06:59:56;;;;;;;20.80;7.53;;;1.20;99.90;;;;;;5034367;28;20432;-51
2021/12/07 07:02:22;;;;;;;20.90;9.37;;;1.20;99.90;;;;;;5033284;28;20477;-48
2021/12/07 07:04:49;;;;;;;17.43;9.30;;;1.20;99.90;;;;;;5033241;28;20430;-45
2021/12/07 07:07:18;;;;;;;16.60;9.33;;;1.30;99.90;;;;;;5033661;28;20453;-49
2021/12/07 07:09:45;;;;;;;17.83;11.53;;;1.30;99.90;;;;;;5032675;28;20457;-47
2021/12/07 07:12:12;;;;;;;21.10;9.37;;;1.30;99.90;;;;;;5032535;28;20487;-44
2021/12/07 07:14:39;;;;;;;16.50;9.00;;;1.30;99.90;;;;;;5033212;28;20464;-45
2021/12/07 07:17:06;;;;;;;18.80;11.30;;;1.30;99.90;;;;;;5033182;28;20510;-49
2021/12/07 07:19:32;;;;;;;15.90;8.07;;;1.40;99.90;;;;;;5032680;28;20907;-50
2021/12/07 07:22:01;;;;;;;16.60;10.17;;;1.40;99.90;;;;;;5032967;28;20506;-47
2021/12/07 07:24:29;;;;;;;20.13;13.20;;;1.40;99.90;;;;;;5033066;28;20456;-46
2021/12/07 07:26:56;;;;;;;15.77;9.83;;;1.50;99.90;;;;;;5032897;28;20437;-44
2021/12/07 07:29:22;;;;;;;13.40;9.80;;;1.50;99.90;;;;;;5033138;28;20460;-44
2021/12/07 07:31:49;;;;;;;17.30;9.70;;;1.60;99.90;;;;;;5032197;28;20448;-49
2021/12/07 07:34:19;;;;;;;23.43;10.03;;;1.60;99.90;;;;;;5032732;28;20459;-45
2021/12/07 07:36:46;;;;;;;18.83;9.97;;;1.60;99.90;;;;;;5033077;28;20457;-49
2021/12/07 07:39:12;;;;;;;22.13;12.07;;;1.60;99.90;;;;;;5032595;28;20470;-50
2021/12/07 07:41:41;;;;;;;22.00;11.10;;;1.60;99.90;;;;;;5032414;28;20441;-46
2021/12/07 07:44:08;;;;;;;21.57;9.03;;;1.50;99.90;;;;;;5032748;28;20459;-45
2021/12/07 07:46:34;;;;;;;16.40;8.30;;;1.60;99.90;;;;;;5032261;28;20465;-46
2021/12/07 07:49:02;;;;;;;18.97;9.27;;;1.60;99.90;;;;;;5029058;28;20473;-48
2021/12/07 07:51:29;;;;;;;15.90;8.53;;;1.60;99.90;;;;;;5026868;28;20461;-46
2021/12/07 07:53:58;;;;;;;20.70;10.07;;;1.70;99.90;;;;;;5032922;28;20484;-47
2021/12/07 07:56:25;;;;;;;17.67;8.80;;;1.70;99.90;;;;;;5031587;28;20453;-52
2021/12/07 07:58:53;;;;;;;30.63;11.20;;;1.70;99.90;;;;;;5034697;28;20463;-47
2021/12/07 08:01:20;;;;;;;18.33;8.60;;;1.70;99.90;;;;;;5035544;28;20438;-49
2021/12/07 08:03:47;;;;;;;23.10;8.47;;;1.70;99.90;;;;;;5034845;28;20493;-46
2021/12/07 08:06:14;;;;;;;18.57;9.50;;;1.60;99.90;;;;;;5034618;28;20516;-48
2021/12/07 08:08:41;;;;;;;17.43;7.63;;;1.70;99.90;;;;;;5035079;28;20477;-46
2021/12/07 08:11:08;;;;;;;15.60;9.50;;;1.70;99.90;;;;;;5035186;28;20843;-46
2021/12/07 08:13:35;;;;;;;22.27;8.40;;;1.70;99.90;;;;;;5035152;28;20475;-46
2021/12/07 08:16:03;;;;;;;26.77;11.77;;;1.70;99.90;;;;;;5034842;28;20464;-46
2021/12/07 08:18:33;;;;;;;27.63;13.03;;;1.70;99.90;;;;;;5034883;28;20460;-44
2021/12/07 08:21:00;;;;;;;19.47;8.80;;;1.70;99.90;;;;;;5035857;28;20432;-46
2021/12/07 08:23:27;;;;;;;24.67;9.87;;;1.70;99.90;;;;;;5035478;28;20516;-47
2021/12/07 08:25:56;;;;;;;17.20;8.40;;;1.70;99.90;;;;;;5035693;28;20485;-57
2021/12/07 08:28:22;;;;;;;23.13;10.20;;;1.70;99.90;;;;;;5035497;28;20464;-52
2021/12/07 08:30:51;;;;;;;15.20;8.17;;;1.70;99.90;;;;;;5036267;28;20441;-46
2021/12/07 08:33:19;;;;;;;30.23;9.30;;;1.70;99.90;;;;;;5038731;28;20506;-45
2021/12/07 08:35:48;;;;;;;23.20;9.30;;;1.80;99.90;;;;;;5039044;28;20456;-43
2021/12/07 08:38:15;;;;;;;20.90;8.23;;;1.80;99.90;;;;;;5038630;28;20435;-42
2021/12/07 08:40:45;;;;;;;17.07;9.40;;;1.80;99.90;;;;;;5039316;28;20432;-45
2021/12/07 08:43:16;;;;;;;18.80;8.53;;;1.80;99.90;;;;;;5038327;28;20465;-42
2021/12/07 08:45:43;;;;;;;12.07;7.87;;;1.80;99.90;;;;;;5038466;28;20503;-43
2021/12/07 08:48:13;;;;;;;12.53;6.63;;;1.80;99.90;;;;;;5038256;28;20445;-42
2021/12/07 08:50:42;;;;;;;15.13;7.10;;;1.90;99.90;;;;;;5038344;28;20488;-45
2021/12/07 08:53:12;;;;;;;18.60;8.10;;;1.80;99.90;;;;;;5038344;28;20439;-42
2021/12/07 09:01:10;;;;;;;17.20;8.50;;;1.90;99.90;;;;;;5038455;28;20464;-45
2021/12/07 09:03:36;;;;;;;11.37;8.47;;;1.90;99.90;;;;;;5038497;28;20481;-54
2021/12/07 09:06:05;;;;;;;16.90;10.20;;;1.90;99.90;;;;;;5039014;28;20483;-54
2021/12/07 09:08:33;;;;;;;12.57;7.10;;;2.00;99.90;;;;;;5038842;28;20457;-50
2021/12/07 09:11:05;;;;;;;15.30;8.03;;;2.10;99.90;;;;;;5038559;28;20472;-53
2021/12/07 09:13:32;;;;;;;17.23;8.50;;;2.10;99.90;;;;;;5038707;28;20439;-42
2021/12/07 09:16:00;;;;;;;16.30;8.97;;;2.10;99.90;;;;;;5038308;28;20465;-46
2021/12/07 09:18:27;;;;;;;18.77;10.43;;;2.10;99.90;;;;;;5038434;28;20479;-44
2021/12/07 09:20:58;;;;;;;18.67;10.13;;;2.10;99.90;;;;;;5038078;28;20478;-44
2021/12/07 09:23:26;;;;;;;24.80;8.43;;;2.10;99.90;;;;;;5037249;28;20480;-43
2021/12/07 09:25:56;;;;;;;24.63;11.60;;;2.20;99.90;;;;;;5038311;28;20513;-48
2021/12/07 09:28:23;;;;;;;12.33;8.33;;;2.20;99.90;;;;;;5038256;28;20450;-40
2021/12/07 09:30:52;;;;;;;15.93;8.37;;;2.10;99.90;;;;;;5037828;28;20447;-45
2021/12/07 09:33:20;;;;;;;14.80;8.30;;;2.10;99.90;;;;;;5037820;28;20493;-47
2021/12/07 09:35:47;;;;;;;16.73;9.70;;;2.10;99.90;;;;;;5038501;28;20507;-44
2021/12/07 09:38:15;;;;;;;15.93;9.00;;;2.10;99.90;;;;;;5038511;28;20440;-45
2021/12/07 09:40:44;;;;;;;13.73;8.90;;;2.20;99.90;;;;;;5038316;28;20442;-43
2021/12/07 09:43:12;;;;;;;24.50;11.40;;;2.20;99.90;;;;;;5037799;28;20475;-53
2021/12/07 09:45:43;;;;;;;25.40;9.37;;;2.20;99.90;;;;;;5038224;28;20498;-47
2021/12/07 09:48:13;;;;;;;14.93;7.77;;;2.20;99.90;;;;;;5038157;28;20441;-44
2021/12/07 09:50:42;;;;;;;21.63;9.87;;;2.20;99.90;;;;;;5037953;28;20437;-42
2021/12/07 09:53:17;;;;;;;23.50;10.13;;;2.20;99.90;;;;;;5037729;28;20533;-58
2021/12/07 09:55:47;;;;;;;15.83;7.83;;;2.20;99.90;;;;;;5037910;28;20425;-56
2021/12/07 09:58:15;;;;;;;14.93;8.13;;;2.20;99.90;;;;;;5037534;28;20461;-54
2021/12/07 10:00:43;;;;;;;25.63;10.90;;;2.30;99.90;;;;;;5037385;28;20441;-45
2021/12/07 10:03:11;;;;;;;14.93;7.50;;;2.30;99.90;;;;;;5036893;28;20488;-45
2021/12/07 10:05:40;;;;;;;21.47;8.93;;;2.30;99.90;;;;;;5037400;28;20473;-46
2021/12/07 10:08:09;;;;;;;13.60;7.80;;;2.30;99.90;;;;;;5036899;28;20461;-44
2021/12/07 10:10:38;;;;;;;17.47;10.97;;;2.30;99.90;;;;;;5037328;28;20433;-44
2021/12/07 10:13:09;;;;;;;17.40;8.53;;;2.30;99.90;;;;;;5036874;28;20450;-46
2021/12/07 10:15:36;;;;;;;22.80;10.77;;;2.30;99.90;;;;;;5036709;28;20457;-46
2021/12/07 10:18:06;;;;;;;19.23;8.57;;;2.40;99.90;;;;;;5037306;28;20476;-44
2021/12/07 10:20:42;;;;;;;23.40;11.13;;;2.30;99.90;;;;;;5036814;28;20467;-46
2021/12/07 10:23:32;;;;;;;15.63;8.60;;;2.30;99.90;;;;;;5036948;28;20575;-47
2021/12/07 10:26:03;;;;;;;14.13;7.37;;;2.20;99.90;;;;;;5036824;28;20467;-46
2021/12/07 10:28:35;;;;;;;36.33;10.50;;;2.20;99.90;;;;;;5036704;28;20469;-47
2021/12/07 10:31:14;;;;;;;23.77;9.50;;;2.30;99.90;;;;;;5036829;28;20465;-44
2021/12/07 10:33:44;;;;;;;15.53;7.17;;;2.30;99.90;;;;;;5036066;28;20481;-47
2021/12/07 10:36:13;;;;;;;17.37;9.20;;;2.30;99.90;;;;;;5036827;28;20446;-62
2021/12/07 10:38:43;;;;;;;21.77;9.23;;;2.30;99.90;;;;;;5037315;28;20472;-46
2021/12/07 10:41:21;;;;;;;14.73;8.67;;;2.40;99.90;;;;;;5036946;28;20448;-46
2021/12/07 10:43:54;;;;;;;20.40;8.40;;;2.40;99.90;;;;;;5036463;28;20556;-44
2021/12/07 10:46:31;;;;;;;19.03;8.67;;;2.30;99.90;;;;;;5036362;28;20429;-46
2021/12/07 10:49:37;;;;;;;24.33;9.30;;;2.30;99.90;;;;;;5036002;28;20535;-44
2021/12/07 10:52:14;;;;;;;13.50;7.80;;;2.40;99.90;;;;;;5036061;28;20493;-49
2021/12/07 10:54:45;;;;;;;18.40;8.87;;;2.50;99.90;;;;;;5032801;28;20457;-46
2021/12/07 10:57:19;;;;;;;25.00;11.87;;;2.50;99.90;;;;;;5035533;28;20434;-48
2021/12/07 11:00:00;;;;;;;14.23;8.47;;;2.50;99.90;;;;;;5035898;28;20512;-45
2021/12/07 11:02:33;;;;;;;14.60;8.40;;;2.50;99.90;;;;;;5035559;28;20465;-51
2021/12/07 11:05:04;;;;;;;23.80;10.10;;;2.50;99.90;;;;;;5021892;28;20465;-45
2021/12/07 11:07:31;;;;;;;25.03;10.63;;;2.50;99.90;;;;;;5035153;28;20441;-49
2021/12/07 11:10:06;;;;;;;23.53;11.80;;;2.60;99.90;;;;;;5035324;28;20477;-45
2021/12/07 11:12:44;;;;;;;23.50;9.47;;;2.60;99.90;;;;;;5035584;28;20449;-50
2021/12/07 11:15:23;;;;;;;25.03;9.20;;;2.70;99.90;;;;;;5035492;28;20517;-50
2021/12/07 11:17:53;;;;;;;14.30;8.70;;;2.70;99.90;;;;;;5035922;28;20467;-48
2021/12/07 11:20:20;;;;;;;17.10;8.20;;;2.70;99.90;;;;;;5035317;28;20464;-53
2021/12/07 11:22:51;;;;;;;17.23;10.60;;;2.70;99.90;;;;;;5035812;28;20446;-46
2021/12/07 11:25:53;;;;;;;14.10;8.27;;;2.70;99.90;;;;;;5035944;28;20476;-52
2021/12/07 11:31:20;;;;;;;24.00;10.90;;;2.70;99.90;;;;;;5021539;28;20448;-43
2021/12/07 11:33:46;;;;;;;26.93;7.97;;;2.70;99.90;;;;;;5035969;28;20456;-48
2021/12/07 11:36:33;;;;;;;27.37;10.47;;;2.70;99.90;;;;;;5034926;28;20445;-49
2021/12/07 11:39:01;;;;;;;15.90;8.37;;;2.60;99.90;;;;;;5035329;28;20471;-44
2021/12/07 11:41:32;;;;;;;26.10;10.37;;;2.60;99.90;;;;;;5035840;28;20422;-49
2021/12/07 11:44:02;;;;;;;15.57;10.67;;;2.70;99.90;;;;;;5034803;28;20486;-44
2021/12/07 11:46:32;;;;;;;23.37;11.13;;;2.70;99.90;;;;;;5035072;28;20440;-49
2021/12/07 11:49:08;;;;;;;18.53;9.27;;;2.70;99.90;;;;;;5034747;28;20460;-47
2021/12/07 11:51:41;;;;;;;26.30;12.27;;;2.70;99.90;;;;;;5035104;28;20437;-46
2021/12/07 11:54:08;;;;;;;16.90;8.50;;;2.70;99.90;;;;;;5035097;28;20420;-46
2021/12/07 11:56:35;;;;;;;17.43;7.87;;;2.80;99.90;;;;;;5035459;28;20436;-45
2021/12/07 11:59:02;;;;;;;18.03;10.10;;;3.60;99.90;;;;;;5034742;28;20489;-49
2021/12/07 12:01:31;;;;;;;25.77;11.10;;;3.50;99.90;;;;;;5035108;28;20488;-49
2021/12/07 12:03:58;;;;;;;15.07;8.40;;;3.30;99.90;;;;;;5034923;28;20530;-45
2021/12/07 12:06:24;;;;;;;37.07;13.90;;;3.30;99.90;;;;;;5038436;28;20481;-45
2021/12/07 12:08:54;;;;;;;24.10;10.97;;;3.20;99.90;;;;;;5038401;28;20472;-48
2021/12/07 12:11:27;;;;;;;26.23;9.83;;;3.10;99.90;;;;;;5038286;28;20479;-45
2021/12/07 12:14:05;;;;;;;23.90;11.03;;;3.10;99.90;;;;;;5038668;28;20454;-45
2021/12/07 12:16:43;;;;;;;21.30;10.97;;;3.10;99.90;;;;;;5038739;28;20444;-47
2021/12/07 12:19:29;;;;;;;21.37;9.77;;;3.10;99.90;;;;;;5023800;28;20461;-43
2021/12/07 12:22:00;;;;;;;17.13;9.77;;;3.00;99.90;;;;;;5038481;28;20445;-52
2021/12/07 12:24:33;;;;;;;21.23;9.60;;;3.00;99.90;;;;;;5038704;28;20548;-45
2021/12/07 12:27:19;;;;;;;21.17;11.30;;;2.90;99.90;;;;;;5022869;28;20489;-57
2021/12/07 12:29:50;;;;;;;16.53;7.90;;;2.90;99.90;;;;;;5038144;28;20449;-54
2021/12/07 12:32:29;;;;;;;20.20;9.67;;;2.90;99.90;;;;;;5038717;28;20453;-49
2021/12/07 12:34:57;;;;;;;22.20;9.63;;;2.90;99.90;;;;;;5038178;28;20472;-46
2021/12/07 12:37:27;;;;;;;26.87;11.30;;;2.90;99.90;;;;;;5037890;28;20442;-47
2021/12/07 12:39:58;;;;;;;16.67;10.43;;;2.90;99.90;;;;;;5038311;28;20469;-44
2021/12/07 12:42:32;;;;;;;17.33;9.03;;;2.90;99.90;;;;;;5037650;28;20438;-44
2021/12/07 12:45:04;;;;;;;23.93;9.80;;;2.90;99.90;;;;;;5021428;28;20841;-46
2021/12/07 12:47:33;;;;;;;22.67;10.60;;;3.00;99.90;;;;;;5037833;28;20453;-43
2021/12/07 12:50:13;;;;;;;24.03;11.20;;;3.00;99.90;;;;;;5037786;28;20462;-42
2021/12/07 12:52:45;;;;;;;27.33;12.13;;;2.90;99.90;;;;;;5037697;28;20499;-44
2021/12/07 12:55:36;;;;;;;19.10;9.57;;;2.90;99.90;;;;;;5037693;28;20461;-45
2021/12/07 12:58:08;;;;;;;24.13;9.27;;;2.90;99.90;;;;;;5037429;28;20476;-45
2021/12/07 13:01:09;;;;;;;18.70;9.43;;;3.00;99.90;;;;;;5037585;28;20437;-46
2021/12/07 13:03:49;;;;;;;29.70;9.63;;;3.00;99.90;;;;;;5037420;28;20488;-46
2021/12/07 13:06:19;;;;;;;17.40;7.63;;;3.00;99.90;;;;;;5037884;28;20424;-47
2021/12/07 13:08:54;;;;;;;30.00;10.73;;;3.00;99.90;;;;;;5038094;28;20471;-54
2021/12/07 13:11:37;;;;;;;16.77;8.87;;;2.90;99.90;;;;;;5037775;28;20426;-43
2021/12/07 13:14:06;;;;;;;17.77;8.67;;;2.90;99.90;;;;;;5037446;28;20441;-41
2021/12/07 13:16:34;;;;;;;19.10;9.53;;;3.00;99.90;;;;;;5037167;28;20473;-49
2021/12/07 13:19:07;;;;;;;22.27;10.20;;;2.90;99.90;;;;;;5037259;28;20476;-43
2021/12/07 13:21:38;;;;;;;20.67;9.90;;;2.90;99.90;;;;;;5037580;28;20483;-46
2021/12/07 13:24:07;;;;;;;23.80;10.13;;;3.00;99.90;;;;;;5036731;28;20461;-46
2021/12/07 13:26:35;;;;;;;27.40;11.13;;;3.00;99.90;;;;;;5037131;28;20480;-45
2021/12/07 13:29:05;;;;;;;17.87;10.00;;;3.00;99.90;;;;;;5037122;28;20476;-46
2021/12/07 13:31:43;;;;;;;27.73;9.40;;;2.90;99.90;;;;;;5037845;28;20446;-45
2021/12/07 13:34:15;;;;;;;18.80;10.50;;;2.90;99.90;;;;;;5036881;28;20467;-42
2021/12/07 13:36:47;;;;;;;16.37;8.47;;;2.70;99.90;;;;;;5036811;28;20438;-44
2021/12/07 13:39:39;;;;;;;28.03;10.20;;;2.70;99.90;;;;;;5037132;28;20441;-45
2021/12/07 13:42:09;;;;;;;14.73;8.67;;;2.70;99.90;;;;;;5037015;28;20454;-48
2021/12/07 13:44:42;;;;;;;27.73;14.07;;;2.70;99.90;;;;;;5037165;28;20459;-42
2021/12/07 13:47:11;;;;;;;23.90;11.03;;;2.60;99.90;;;;;;5037215;28;20446;-43
2021/12/07 13:49:41;;;;;;;23.97;11.87;;;2.50;99.90;;;;;;5036701;28;20480;-44
2021/12/07 13:52:14;;;;;;;23.50;11.37;;;2.60;99.90;;;;;;5029069;28;20863;-43
2021/12/07 13:54:45;;;;;;;24.50;11.80;;;2.50;99.90;;;;;;5028582;28;20552;-45
2021/12/07 13:57:18;;;;;;;18.77;8.43;;;2.40;99.90;;;;;;5028008;28;20525;-44
2021/12/07 13:59:56;;;;;;;20.27;8.50;;;2.40;99.90;;;;;;5032426;28;20516;-43
2021/12/07 14:02:24;;;;;;;17.00;9.20;;;2.40;99.90;;;;;;5028856;28;20445;-44
2021/12/07 14:05:00;;;;;;;26.23;8.83;;;2.40;99.90;;;;;;5029257;28;20932;-43
2021/12/07 14:07:27;;;;;;;23.47;10.00;;;2.40;99.90;;;;;;5028553;28;20469;-47
2021/12/07 14:09:54;;;;;;;21.67;11.20;;;2.40;99.90;;;;;;5029449;28;20450;-43
2021/12/07 14:12:23;;;;;;;19.37;9.53;;;2.30;99.90;;;;;;5030555;28;20491;-44
2021/12/07 14:14:50;;;;;;;15.67;8.50;;;2.30;99.90;;;;;;5030329;28;20432;-46
2021/12/07 14:17:18;;;;;;;22.50;9.77;;;2.30;99.90;;;;;;5031423;28;20493;-42
2021/12/07 14:19:44;;;;;;;17.90;9.13;;;2.40;99.90;;;;;;5031967;28;20483;-45
2021/12/07 14:22:12;;;;;;;22.97;9.47;;;2.40;99.90;;;;;;5029567;28;20442;-46
2021/12/07 14:24:39;;;;;;;22.97;10.30;;;2.40;99.90;;;;;;5030044;28;20489;-47
2021/12/07 14:27:07;;;;;;;17.40;10.97;;;2.40;99.90;;;;;;5031171;28;20445;-50